PWAK Airport Information

Runway Information
Runway 10 Length 9843 ft width 150 ft
Elevation 14 ft Threshold 0 ft Heading 95
Runway 28 Length 9843 ft Width 150 ft
Elevation 12 ft Threshold 0 ft Heading 275
Airport Frequencies
Type A/G Name OPS AAS Frequency 128 MHZ
Type RDO Name OAKLAND OC Frequency 884.3 MHZ
Airport Navaids
Type VORTAC Name Wake Island Frequency 113500 KHZ
Airport Weather Information & NOTAM
ADDS - METARS form results

(1059 UTC 19 September 2018)
Data provider http://aviationweather.gov/metar/data/
 
METAR text: PWAK 191047Z AUTO 05010KT M UP M M A2986
Conditions at: PWAK (WAKE ISLAND AIRF, UM, US) observed 1047 UTC 19 September 2018
Temperature: missing
Dewpoint: missing
Pressure (altimeter): 29.86 inches Hg (1011.3 mb)
Winds: from the NE (50 degrees) at 12 MPH (10 knots; 5.1 m/s)
Visibility: missing
Ceiling: unknown
Clouds: missing
Weather: UP  (unknown precipitation)

METAR text: PWAK 191034Z AUTO M 9999 M 28/25 A2986
Conditions at: PWAK (WAKE ISLAND AIRF, UM, US) observed 1034 UTC 19 September 2018
Temperature: 28.0°C (82°F)
Dewpoint: 25.0°C (77°F) [RH = 84%]
Pressure (altimeter): 29.86 inches Hg (1011.3 mb)
Winds: missing
Visibility: 6 or more miles (10+ km)
Ceiling: unknown
Clouds: missing
Weather: no significant weather observed at this time

METAR text: PWAK 191027Z AUTO 05011KT 6000 -DZ M 28/25 A2986 RMK AO2 UPE0959RAB09E21RAB22E27DZB27 SLPNO $
Conditions at: PWAK (WAKE ISLAND AIRF, UM, US) observed 1027 UTC 19 September 2018
Temperature: 28.0°C (82°F)
Dewpoint: 25.0°C (77°F) [RH = 84%]
Pressure (altimeter): 29.86 inches Hg (1011.3 mb)
Winds: from the NE (50 degrees) at 13 MPH (11 knots; 5.7 m/s)
Visibility: 4 miles ( 6 km)
Ceiling: unknown
Clouds: missing
Weather: -DZ  (light drizzle)
SOME DATA ABOVE MAY BE INACCURATE!!!
"$" is an indication the sensor requires maintenance

METAR text: PWAK 191022Z AUTO 04011KT 3600 -RA M 28/25 A2986 RMK AO2 UPE0959RAB09E21RAB22 SLPNO $
Conditions at: PWAK (WAKE ISLAND AIRF, UM, US) observed 1022 UTC 19 September 2018
Temperature: 28.0°C (82°F)
Dewpoint: 25.0°C (77°F) [RH = 84%]
Pressure (altimeter): 29.86 inches Hg (1011.3 mb)
Winds: from the NE (40 degrees) at 13 MPH (11 knots; 5.7 m/s)
Visibility: 2.24 miles (3.60 km)
Ceiling: unknown
Clouds: missing
Weather: -RA  (light rain)
SOME DATA ABOVE MAY BE INACCURATE!!!
"$" is an indication the sensor requires maintenance

METAR text: PWAK 191021Z AUTO 04010KT 3600 M M 28/25 A2986
Conditions at: PWAK (WAKE ISLAND AIRF, UM, US) observed 1021 UTC 19 September 2018
Temperature: 28.0°C (82°F)
Dewpoint: 25.0°C (77°F) [RH = 84%]
Pressure (altimeter): 29.86 inches Hg (1011.3 mb)
Winds: from the NE (40 degrees) at 12 MPH (10 knots; 5.1 m/s)
Visibility: 2.24 miles (3.60 km)
Ceiling: unknown
Clouds: missing
Weather: no significant weather observed at this time

METAR text: PWAK 191019Z AUTO 04009KT 3600 -RA M 28/25 A2986
Conditions at: PWAK (WAKE ISLAND AIRF, UM, US) observed 1019 UTC 19 September 2018
Temperature: 28.0°C (82°F)
Dewpoint: 25.0°C (77°F) [RH = 84%]
Pressure (altimeter): 29.86 inches Hg (1011.3 mb)
Winds: from the NE (40 degrees) at 10 MPH (9 knots; 4.6 m/s)
Visibility: 2.24 miles (3.60 km)
Ceiling: unknown
Clouds: missing
Weather: -RA  (light rain)

METAR text: PWAK 191009Z AUTO 04011KT M -RA M 27/24 A2986
Conditions at: PWAK (WAKE ISLAND AIRF, UM, US) observed 1009 UTC 19 September 2018
Temperature: 27.0°C (81°F)
Dewpoint: 24.0°C (75°F) [RH = 84%]
Pressure (altimeter): 29.86 inches Hg (1011.3 mb)
Winds: from the NE (40 degrees) at 13 MPH (11 knots; 5.7 m/s)
Visibility: missing
Ceiling: unknown
Clouds: missing
Weather: -RA  (light rain)

Forecast for: PWAK (WAKE ISLAND AIRF, UM, US)
Text: TAF PWAK 190600Z 1906/2012 06009KT 9999 SCT025 QNH2970INS TX31/2002Z TN25/1918Z LIMITED METWATCH 1906 TIL 1914
Forecast period: 0600 UTC 19 September 2018 to 1200 UTC 20 September 2018
Forecast type: FROM: standard forecast or significant change
Winds: from the ENE (60 degrees) at 10 MPH (9 knots; 4.6 m/s)
Visibility: 6 or more miles 10+ km)
Ceiling: at least 12,000 feet AGL
Clouds: scattered clouds at 2500 feet AGL
Weather: no significant weather forecast for this period